Time;durP1;ratioP1;P1;durP2;ratioP2;P2;SDS_P1;SDS_P2;PMS_P1;PMS_P2;Temp;Humidity;BMP_temperature;BMP_pressure;BME280_temperature;BME280_humidity;BME280_pressure;Samples;Min_cycle;Max_cycle;Signal;HPM_P1;HPM_P2
2022/05/24 00:00:17;;;;;;;4.63;2.90;;;16.20;99.90;;;;;;5107116;28;20279;-89
2022/05/24 00:02:48;;;;;;;4.10;2.90;;;16.30;99.90;;;;;;5110934;27;20230;-90
2022/05/24 00:05:21;;;;;;;5.55;2.45;;;16.30;99.90;;;;;;5108443;28;20608;-89
2022/05/24 00:07:54;;;;;;;5.03;2.90;;;16.40;99.90;;;;;;5105746;28;20275;-88
2022/05/24 00:10:26;;;;;;;3.88;2.50;;;16.40;99.90;;;;;;5108955;27;20202;-89
2022/05/24 00:12:58;;;;;;;4.45;2.88;;;16.50;99.90;;;;;;5105486;28;20260;-88
2022/05/24 00:15:32;;;;;;;4.18;2.53;;;16.50;99.90;;;;;;5109942;28;20182;-90
2022/05/24 00:18:05;;;;;;;3.95;2.20;;;16.50;99.90;;;;;;5110557;28;20234;-90
2022/05/24 00:20:38;;;;;;;4.05;2.08;;;16.50;99.90;;;;;;5108390;28;20683;-88
2022/05/24 00:23:09;;;;;;;4.82;2.35;;;16.50;99.90;;;;;;5106451;28;20214;-88
2022/05/24 00:25:43;;;;;;;4.85;2.60;;;16.60;99.90;;;;;;5109157;28;20203;-89
2022/05/24 00:28:17;;;;;;;7.68;2.70;;;16.70;99.90;;;;;;5110925;28;20198;-89
2022/05/24 00:30:49;;;;;;;5.43;2.60;;;16.70;99.90;;;;;;5114342;28;20198;-88
2022/05/24 00:33:21;;;;;;;4.80;2.60;;;16.70;99.90;;;;;;5111406;28;20198;-90
2022/05/24 00:35:52;;;;;;;2.38;1.75;;;16.70;99.90;;;;;;5107909;28;20220;-90
2022/05/24 00:38:33;;;;;;;6.22;2.20;;;16.70;99.90;;;;;;5110863;28;20263;-89
2022/05/24 00:41:17;;;;;;;4.95;2.05;;;16.70;99.90;;;;;;5131134;27;20202;-87
2022/05/24 00:43:53;;;;;;;3.83;2.03;;;16.80;99.90;;;;;;5129179;27;20210;-87
2022/05/24 00:46:27;;;;;;;7.13;2.13;;;16.80;99.90;;;;;;5126611;28;20187;-86
2022/05/24 00:49:03;;;;;;;2.38;1.70;;;16.80;99.90;;;;;;5124064;28;20186;-90
2022/05/24 00:51:38;;;;;;;5.20;2.05;;;16.90;99.90;;;;;;5106837;28;20607;-87
2022/05/24 00:54:09;;;;;;;3.42;1.80;;;16.90;99.90;;;;;;5107070;28;20232;-88
2022/05/24 00:56:53;;;;;;;2.90;1.50;;;17.00;99.90;;;;;;5106006;28;20190;-89
2022/05/24 00:59:38;;;;;;;3.15;1.88;;;17.00;99.90;;;;;;5106964;28;20195;-88
2022/05/24 01:02:10;;;;;;;2.60;1.60;;;17.10;99.90;;;;;;5103088;28;20191;-87
2022/05/24 01:04:41;;;;;;;3.30;1.58;;;17.10;99.90;;;;;;5104425;28;20218;-87
2022/05/24 01:07:12;;;;;;;5.03;1.67;;;17.20;99.90;;;;;;5105804;28;20198;-87
2022/05/24 01:09:47;;;;;;;3.60;1.77;;;17.20;99.90;;;;;;5110086;27;20244;-85
2022/05/24 01:12:21;;;;;;;6.88;1.83;;;17.20;99.90;;;;;;5106228;27;20214;-86
2022/05/24 01:14:55;;;;;;;5.18;1.73;;;17.20;99.90;;;;;;5106933;28;20206;-87
2022/05/24 01:17:25;;;;;;;4.32;1.77;;;17.20;99.90;;;;;;5110175;28;20234;-88
2022/05/24 01:19:56;;;;;;;4.85;1.63;;;17.30;99.90;;;;;;5107740;28;20191;-87
2022/05/24 01:22:52;;;;;;;3.03;1.70;;;17.30;99.90;;;;;;5109040;27;20773;-87
2022/05/24 01:25:27;;;;;;;3.50;1.70;;;17.30;99.90;;;;;;5109237;28;20255;-87
2022/05/24 01:28:02;;;;;;;2.88;1.60;;;17.40;99.90;;;;;;5110417;27;20187;-87
2022/05/24 01:30:33;;;;;;;4.63;1.80;;;17.40;99.90;;;;;;5106974;28;20191;-88
2022/05/24 01:38:42;;;;;;;4.25;1.92;;;17.60;99.90;;;;;;5104775;27;20222;-85
2022/05/24 01:41:16;;;;;;;3.30;1.67;;;17.60;99.90;;;;;;5110224;27;20635;-88
2022/05/24 01:43:52;;;;;;;2.35;1.30;;;17.70;99.90;;;;;;5108540;27;20245;-88
2022/05/24 01:46:25;;;;;;;3.05;1.40;;;17.80;99.90;;;;;;5108974;27;20193;-88
2022/05/24 01:48:58;;;;;;;5.88;1.55;;;17.80;99.90;;;;;;5108229;27;20644;-88
2022/05/24 01:51:34;;;;;;;3.05;1.50;;;17.80;99.90;;;;;;5109188;28;20191;-88
2022/05/24 01:54:08;;;;;;;4.55;1.55;;;17.80;99.90;;;;;;5107732;28;20198;-88
2022/05/24 01:56:44;;;;;;;6.38;1.90;;;17.80;99.90;;;;;;5108127;27;20194;-87
2022/05/24 01:59:19;;;;;;;3.65;1.58;;;17.90;99.90;;;;;;5107160;28;20206;-87
2022/05/24 02:01:52;;;;;;;2.22;1.40;;;17.90;99.90;;;;;;5106197;28;20243;-87
2022/05/24 02:04:24;;;;;;;5.05;1.77;;;17.80;99.90;;;;;;5107417;28;20226;-87
2022/05/24 02:07:07;;;;;;;4.57;1.42;;;17.80;99.90;;;;;;5106006;28;20203;-83
2022/05/24 02:09:39;;;;;;;3.67;1.65;;;17.80;99.90;;;;;;5103528;28;20963;-81
2022/05/24 02:12:14;;;;;;;2.97;1.40;;;17.80;99.90;;;;;;5105776;27;20201;-83
2022/05/24 02:14:50;;;;;;;3.25;1.35;;;17.80;99.90;;;;;;5101161;28;20191;-82
2022/05/24 02:17:25;;;;;;;3.25;1.02;;;17.70;99.90;;;;;;5104771;27;20668;-82
2022/05/24 02:19:57;;;;;;;2.50;1.00;;;17.70;99.90;;;;;;5100529;27;20198;-80
2022/05/24 02:22:29;;;;;;;3.30;1.15;;;17.60;99.90;;;;;;5101379;27;20195;-79
2022/05/24 02:25:04;;;;;;;1.88;0.88;;;17.60;99.90;;;;;;5101945;28;20218;-82
2022/05/24 02:27:40;;;;;;;3.63;2.08;;;17.50;99.90;;;;;;5102574;27;20266;-81
2022/05/24 02:30:19;;;;;;;3.35;1.40;;;17.50;99.90;;;;;;5100689;27;20651;-82
2022/05/24 02:32:50;;;;;;;4.65;1.00;;;17.50;99.90;;;;;;5105706;27;20206;-80
2022/05/24 02:35:21;;;;;;;1.52;0.52;;;17.40;99.90;;;;;;5106018;27;20269;-81
2022/05/24 02:37:52;;;;;;;2.90;0.68;;;17.40;99.90;;;;;;5105771;27;20206;-81
2022/05/24 02:43:09;;;;;;;2.90;1.10;;;17.30;99.90;;;;;;5102540;27;20559;-81
2022/05/24 02:45:45;;;;;;;3.25;1.27;;;17.20;99.90;;;;;;5103100;27;20242;-81
2022/05/24 02:48:16;;;;;;;1.80;1.08;;;17.20;99.90;;;;;;5102777;27;20182;-80
2022/05/24 02:50:47;;;;;;;2.30;0.90;;;17.10;99.90;;;;;;5102923;28;21811;-82
2022/05/24 02:53:18;;;;;;;2.05;1.00;;;17.10;99.90;;;;;;5102728;27;20206;-82
2022/05/24 02:55:48;;;;;;;2.67;1.00;;;17.00;99.90;;;;;;5102162;28;20202;-84
2022/05/24 02:58:19;;;;;;;2.65;1.00;;;17.00;99.90;;;;;;5103726;27;20183;-85
2022/05/24 03:00:52;;;;;;;1.65;0.80;;;17.00;99.90;;;;;;5101752;28;20281;-84
2022/05/24 03:03:23;;;;;;;2.65;0.95;;;16.90;99.90;;;;;;5103026;27;20243;-81
2022/05/24 03:05:55;;;;;;;1.98;0.75;;;16.90;99.90;;;;;;5100410;27;20271;-81
2022/05/24 03:11:13;;;;;;;3.47;1.50;;;16.90;99.90;;;;;;5103490;27;20276;-80
2022/05/24 03:16:32;;;;;;;3.85;0.90;;;16.90;99.90;;;;;;5103183;27;20202;-82
2022/05/24 03:19:02;;;;;;;4.03;1.33;;;16.90;99.90;;;;;;5104316;27;20538;-81
2022/05/24 03:21:33;;;;;;;2.40;0.95;;;16.90;99.90;;;;;;5098723;27;20847;-80
2022/05/24 03:24:04;;;;;;;3.00;1.10;;;16.90;99.90;;;;;;5101038;28;20278;-81
2022/05/24 03:26:36;;;;;;;0.82;0.70;;;16.90;99.90;;;;;;5101890;27;20572;-81
2022/05/24 03:29:08;;;;;;;1.80;0.70;;;16.90;99.90;;;;;;5101333;28;20195;-80
2022/05/24 03:31:43;;;;;;;2.17;0.90;;;16.90;99.90;;;;;;5099525;28;20218;-80
2022/05/24 03:34:13;;;;;;;1.77;0.80;;;16.90;99.90;;;;;;5101533;27;20190;-81
2022/05/24 03:36:44;;;;;;;4.22;1.00;;;16.90;99.90;;;;;;5102972;27;20194;-81
2022/05/24 03:39:15;;;;;;;4.43;1.10;;;16.90;99.90;;;;;;5099676;27;20199;-82
2022/05/24 03:41:47;;;;;;;2.17;0.93;;;17.00;99.90;;;;;;5103356;27;20198;-82
2022/05/24 03:44:19;;;;;;;1.58;0.82;;;17.00;99.90;;;;;;5099862;27;20222;-83
2022/05/24 03:46:52;;;;;;;1.40;1.00;;;16.90;99.90;;;;;;5104060;28;20194;-84
2022/05/24 03:49:23;;;;;;;1.50;1.00;;;16.90;99.90;;;;;;5101887;27;20206;-83
2022/05/24 03:51:55;;;;;;;2.75;1.30;;;16.90;99.90;;;;;;5100608;27;20846;-83
2022/05/24 03:54:25;;;;;;;2.83;1.52;;;16.90;99.90;;;;;;5102462;27;20210;-82
2022/05/24 03:59:43;;;;;;;3.58;1.15;;;17.00;99.90;;;;;;5101232;28;20197;-80
2022/05/24 04:02:15;;;;;;;2.97;1.30;;;17.00;99.90;;;;;;5104454;27;20275;-82
2022/05/24 04:04:47;;;;;;;3.58;1.48;;;17.00;99.90;;;;;;5102703;28;20211;-83
2022/05/24 04:07:17;;;;;;;2.85;1.38;;;17.10;99.90;;;;;;5107276;28;20247;-82
2022/05/24 04:09:48;;;;;;;3.97;2.53;;;17.10;99.90;;;;;;5120236;28;20202;-81
2022/05/24 04:12:19;;;;;;;3.38;3.08;;;17.20;99.90;;;;;;5120318;28;20279;-83
2022/05/24 04:14:50;;;;;;;5.43;3.10;;;17.20;99.90;;;;;;5103842;28;20569;-82
2022/05/24 04:17:22;;;;;;;5.72;3.80;;;17.30;99.90;;;;;;5107766;28;20254;-82
2022/05/24 04:19:53;;;;;;;9.82;8.23;;;17.30;99.90;;;;;;5104089;28;20199;-80
2022/05/24 04:22:24;;;;;;;9.02;7.32;;;17.30;99.90;;;;;;5103662;28;20201;-81
2022/05/24 04:24:56;;;;;;;14.18;8.98;;;17.30;99.90;;;;;;5103442;28;20605;-82
2022/05/24 04:27:27;;;;;;;9.85;5.18;;;17.30;99.90;;;;;;5103525;28;20202;-82
2022/05/24 04:29:58;;;;;;;8.00;4.93;;;17.30;99.90;;;;;;5103793;28;20255;-82
2022/05/24 04:32:32;;;;;;;6.50;3.47;;;17.30;99.90;;;;;;5102042;28;20194;-82
2022/05/24 04:35:03;;;;;;;6.97;3.80;;;17.40;99.90;;;;;;5099724;28;20244;-81
2022/05/24 04:37:33;;;;;;;14.35;9.00;;;17.40;99.90;;;;;;5102831;28;20247;-83
2022/05/24 04:40:04;;;;;;;13.63;8.52;;;17.40;99.90;;;;;;5099823;28;20211;-82
2022/05/24 04:42:33;;;;;;;13.70;8.68;;;17.30;99.90;;;;;;5101695;28;20680;-82
2022/05/24 04:45:06;;;;;;;16.33;9.95;;;17.30;99.90;;;;;;5105576;27;20623;-85
2022/05/24 04:47:40;;;;;;;14.23;8.63;;;17.30;99.90;;;;;;5104276;28;20198;-83
2022/05/24 04:50:13;;;;;;;5.40;3.10;;;17.30;99.90;;;;;;5106421;28;20189;-82
2022/05/24 04:52:45;;;;;;;6.57;5.32;;;17.30;99.90;;;;;;5105660;27;20252;-84
2022/05/24 04:55:16;;;;;;;7.65;6.60;;;17.30;99.90;;;;;;5106749;27;20729;-84
2022/05/24 04:57:47;;;;;;;5.53;4.43;;;17.30;99.90;;;;;;5105074;27;20726;-82
2022/05/24 05:00:18;;;;;;;4.15;2.30;;;17.30;99.90;;;;;;5104071;28;20190;-83
2022/05/24 05:02:51;;;;;;;3.88;1.88;;;17.30;99.90;;;;;;5105951;27;20283;-81
2022/05/24 05:05:22;;;;;;;5.82;3.95;;;17.40;99.90;;;;;;5105026;27;20218;-81
2022/05/24 05:07:52;;;;;;;4.75;3.55;;;17.40;99.90;;;;;;5105829;27;20686;-82
2022/05/24 05:10:23;;;;;;;3.95;2.30;;;17.50;99.90;;;;;;5105584;27;20756;-83
2022/05/24 05:12:54;;;;;;;5.55;4.22;;;17.40;99.90;;;;;;5104808;27;20253;-82
2022/05/24 05:15:25;;;;;;;9.65;6.72;;;17.50;99.90;;;;;;5100726;27;20198;-83
2022/05/24 05:18:05;;;;;;;3.47;2.60;;;17.50;99.90;;;;;;5103783;28;20619;-83
2022/05/24 05:20:39;;;;;;;1.45;0.60;;;17.50;99.90;;;;;;5104930;28;20243;-82
2022/05/24 05:23:09;;;;;;;3.05;0.98;;;17.50;99.90;;;;;;5102640;27;20199;-82
2022/05/24 05:25:41;;;;;;;4.97;3.17;;;17.60;99.90;;;;;;5105553;27;20237;-82
2022/05/24 05:28:12;;;;;;;2.00;1.17;;;17.50;99.90;;;;;;5105385;27;20182;-83
2022/05/24 05:33:31;;;;;;;6.00;4.05;;;17.60;99.90;;;;;;5106762;27;20326;-84
2022/05/24 05:36:02;;;;;;;19.55;14.15;;;17.60;99.90;;;;;;5103441;27;20201;-83
2022/05/24 05:38:33;;;;;;;14.48;12.98;;;17.60;99.90;;;;;;5107506;27;20190;-85
2022/05/24 05:41:05;;;;;;;12.40;11.20;;;17.60;99.90;;;;;;5104087;28;20226;-84
2022/05/24 05:43:35;;;;;;;7.85;7.13;;;17.70;99.90;;;;;;5105547;27;20190;-84
2022/05/24 05:46:07;;;;;;;5.10;4.40;;;17.80;99.90;;;;;;5106221;27;20202;-84
2022/05/24 05:48:40;;;;;;;4.18;3.80;;;17.80;99.90;;;;;;5103903;28;20198;-81
2022/05/24 05:51:12;;;;;;;3.83;1.00;;;17.90;99.90;;;;;;5104087;27;20704;-83
2022/05/24 05:53:47;;;;;;;2.13;0.60;;;17.90;99.90;;;;;;5104836;27;20566;-82
2022/05/24 05:56:19;;;;;;;1.17;0.70;;;17.80;99.90;;;;;;5105723;27;21165;-82
2022/05/24 05:58:50;;;;;;;2.08;1.33;;;17.90;99.90;;;;;;5102378;28;20666;-83
2022/05/24 06:01:28;;;;;;;4.95;4.18;;;17.90;99.90;;;;;;5105283;27;20285;-82
2022/05/24 06:04:01;;;;;;;5.10;4.18;;;17.90;99.90;;;;;;5103713;27;20219;-83
2022/05/24 06:06:36;;;;;;;7.80;3.83;;;17.90;99.90;;;;;;5101841;27;20219;-83
2022/05/24 06:09:09;;;;;;;7.20;5.50;;;18.00;99.90;;;;;;5103556;27;20219;-82
2022/05/24 06:11:42;;;;;;;12.05;10.55;;;18.00;99.90;;;;;;5102333;28;20194;-82
2022/05/24 06:14:13;;;;;;;9.88;8.85;;;18.10;99.90;;;;;;5102795;27;20256;-81
2022/05/24 06:16:45;;;;;;;23.92;20.50;;;18.10;99.90;;;;;;5104218;27;20190;-83
2022/05/24 06:19:17;;;;;;;17.75;14.50;;;18.10;99.90;;;;;;5105491;27;20195;-81
2022/05/24 06:21:48;;;;;;;19.25;17.20;;;18.20;99.90;;;;;;5101767;27;20202;-82
2022/05/24 06:24:19;;;;;;;46.30;41.40;;;18.20;99.90;;;;;;5103524;27;20538;-83
2022/05/24 06:26:50;;;;;;;29.83;26.45;;;18.30;99.90;;;;;;5102586;28;20223;-83
2022/05/24 06:29:21;;;;;;;8.35;6.75;;;18.30;99.90;;;;;;5101723;27;20199;-83
2022/05/24 06:31:53;;;;;;;13.70;11.55;;;18.30;99.90;;;;;;5104145;27;20247;-81
2022/05/24 06:34:31;;;;;;;8.10;7.30;;;18.30;99.90;;;;;;5104255;27;20213;-82
2022/05/24 06:37:02;;;;;;;3.20;2.17;;;18.20;99.90;;;;;;5103582;28;20691;-81
2022/05/24 06:39:32;;;;;;;1.85;1.70;;;18.20;99.90;;;;;;5102643;28;20254;-81
2022/05/24 06:42:03;;;;;;;2.70;1.02;;;18.10;99.90;;;;;;5101952;27;20558;-81
2022/05/24 06:44:34;;;;;;;1.23;1.00;;;18.10;99.90;;;;;;5102101;27;20202;-81
2022/05/24 06:47:04;;;;;;;3.53;1.00;;;18.10;99.90;;;;;;5104001;27;20270;-82
2022/05/24 06:49:37;;;;;;;1.63;0.40;;;18.00;99.90;;;;;;5101965;27;20335;-82
2022/05/24 06:52:08;;;;;;;1.45;0.40;;;17.90;99.90;;;;;;5105443;27;20310;-82
2022/05/24 06:54:40;;;;;;;1.80;0.90;;;17.90;99.90;;;;;;5101938;27;20201;-82
2022/05/24 06:57:15;;;;;;;1.10;0.60;;;17.80;99.90;;;;;;5105040;28;20207;-82
2022/05/24 07:02:32;;;;;;;0.85;0.65;;;17.70;99.90;;;;;;5103487;27;20222;-81
2022/05/24 07:05:06;;;;;;;1.90;0.70;;;17.60;99.90;;;;;;5102615;27;20252;-83
2022/05/24 07:07:38;;;;;;;2.17;0.60;;;17.50;99.90;;;;;;5103335;27;20194;-83
2022/05/24 07:10:10;;;;;;;1.08;0.32;;;17.50;99.90;;;;;;5105683;27;20202;-83
2022/05/24 07:12:41;;;;;;;12.25;8.73;;;17.40;99.90;;;;;;5103024;28;20614;-81
2022/05/24 07:15:12;;;;;;;325.10;202.07;;;17.30;99.90;;;;;;5099525;28;20195;-82
2022/05/24 07:17:43;;;;;;;208.13;130.82;;;17.30;99.90;;;;;;5109311;28;20206;-81
2022/05/24 07:20:16;;;;;;;83.13;56.92;;;17.20;99.90;;;;;;5111632;28;20540;-79
2022/05/24 07:22:48;;;;;;;53.17;36.85;;;17.20;99.90;;;;;;5112470;27;20195;-80
2022/05/24 07:25:18;;;;;;;31.83;26.48;;;17.20;99.90;;;;;;5111621;27;20221;-81
2022/05/24 07:27:49;;;;;;;41.33;33.80;;;17.10;99.90;;;;;;5106317;27;20631;-82
2022/05/24 07:30:20;;;;;;;29.52;23.33;;;17.10;99.90;;;;;;5102397;28;20646;-82
2022/05/24 07:32:50;;;;;;;13.30;11.25;;;17.10;99.90;;;;;;5104098;27;20199;-82
2022/05/24 07:35:25;;;;;;;16.25;12.63;;;17.00;99.90;;;;;;5105392;27;20194;-81
2022/05/24 07:37:56;;;;;;;14.35;11.40;;;17.00;99.90;;;;;;5102517;27;20275;-81
2022/05/24 07:46:11;;;;;;;7.72;6.53;;;17.00;99.90;;;;;;5104556;28;20309;-82
2022/05/24 07:48:42;;;;;;;8.10;5.18;;;16.90;99.90;;;;;;5103312;28;20247;-83
2022/05/24 07:51:14;;;;;;;6.13;3.95;;;16.90;99.90;;;;;;5103327;27;20207;-83
2022/05/24 07:53:45;;;;;;;6.20;3.70;;;16.90;99.90;;;;;;5102840;27;20240;-83
2022/05/24 07:56:18;;;;;;;5.50;3.53;;;16.90;99.90;;;;;;5104431;28;20604;-84
2022/05/24 07:58:50;;;;;;;6.60;3.53;;;16.80;99.90;;;;;;5102308;28;20191;-85
2022/05/24 08:01:23;;;;;;;5.93;4.03;;;16.80;99.90;;;;;;5104964;27;20802;-84
2022/05/24 08:03:54;;;;;;;6.80;4.93;;;16.80;99.90;;;;;;5102004;28;20245;-83
2022/05/24 08:06:26;;;;;;;7.22;6.18;;;16.80;99.90;;;;;;5102545;28;20226;-82
2022/05/24 08:08:57;;;;;;;9.07;7.20;;;16.80;99.90;;;;;;5101994;28;20198;-83
2022/05/24 08:11:28;;;;;;;13.45;12.07;;;16.80;99.90;;;;;;5099307;27;20191;-83
2022/05/24 08:13:59;;;;;;;30.88;27.52;;;16.80;99.90;;;;;;5103867;28;20258;-84
2022/05/24 08:16:31;;;;;;;25.92;23.20;;;16.70;99.90;;;;;;5100331;28;20260;-85
2022/05/24 08:19:02;;;;;;;14.25;12.85;;;16.70;99.90;;;;;;5103252;28;20214;-84
2022/05/24 08:21:35;;;;;;;10.15;9.02;;;16.60;99.90;;;;;;5103895;28;20182;-84
2022/05/24 08:24:06;;;;;;;7.45;5.43;;;16.60;99.90;;;;;;5101929;28;20263;-84
2022/05/24 08:26:38;;;;;;;8.05;7.13;;;16.60;99.90;;;;;;5102220;28;20274;-83
2022/05/24 08:29:08;;;;;;;7.32;5.78;;;16.60;99.90;;;;;;5103469;28;20274;-83
2022/05/24 08:31:39;;;;;;;6.05;5.18;;;16.60;99.90;;;;;;5102777;28;20202;-83
2022/05/24 08:34:10;;;;;;;4.75;3.60;;;16.60;99.90;;;;;;5105298;28;20251;-82
2022/05/24 08:36:42;;;;;;;4.55;3.50;;;16.60;99.90;;;;;;5101377;28;20211;-83
2022/05/24 08:39:13;;;;;;;6.50;4.05;;;16.60;99.90;;;;;;5102627;28;20653;-81
2022/05/24 08:41:59;;;;;;;4.00;2.10;;;16.60;99.90;;;;;;5099473;28;20602;-81
2022/05/24 08:50:15;;;;;;;3.33;1.55;;;16.60;99.90;;;;;;5100497;28;20213;-83
2022/05/24 08:52:53;;;;;;;4.85;1.90;;;16.60;99.90;;;;;;5103457;28;20305;-85
2022/05/24 08:55:24;;;;;;;2.95;2.08;;;16.60;99.90;;;;;;5102023;28;20199;-81
2022/05/24 08:57:56;;;;;;;6.97;4.20;;;16.60;99.90;;;;;;5100655;28;20584;-84
2022/05/24 09:00:31;;;;;;;8.48;5.13;;;16.60;99.90;;;;;;5100976;28;20558;-82
2022/05/24 09:03:05;;;;;;;6.30;4.20;;;16.70;99.90;;;;;;5102922;28;20226;-84
2022/05/24 09:05:39;;;;;;;9.52;3.65;;;16.70;99.90;;;;;;5102012;28;20265;-84
2022/05/24 09:08:21;;;;;;;6.80;3.53;;;16.70;99.90;;;;;;5104508;28;20723;-83
2022/05/24 09:10:57;;;;;;;5.93;3.40;;;16.70;99.90;;;;;;5101681;28;20202;-85
2022/05/24 09:14:12;;;;;;;7.05;4.30;;;16.70;99.90;;;;;;5100417;28;20267;-83
2022/05/24 09:16:54;;;;;;;7.28;4.93;;;16.70;99.90;;;;;;5102449;28;20199;-84
2022/05/24 09:19:27;;;;;;;10.20;5.80;;;16.60;99.90;;;;;;5101613;28;20273;-79
2022/05/24 09:21:58;;;;;;;7.15;5.13;;;16.60;99.90;;;;;;5100436;28;20252;-83
2022/05/24 09:24:39;;;;;;;7.47;5.57;;;16.60;99.90;;;;;;5100929;28;20202;-79
2022/05/24 09:27:18;;;;;;;6.55;5.32;;;16.60;99.90;;;;;;5101505;28;20226;-84
2022/05/24 09:30:02;;;;;;;7.45;5.53;;;16.60;99.90;;;;;;5098529;27;20225;-84
2022/05/24 09:32:40;;;;;;;10.07;5.50;;;16.60;99.90;;;;;;5106148;27;20206;-81
2022/05/24 09:35:21;;;;;;;6.95;4.07;;;16.60;99.90;;;;;;5103318;28;20572;-81
2022/05/24 09:38:10;;;;;;;4.95;3.55;;;16.60;99.90;;;;;;5103433;27;20202;-80
2022/05/24 09:40:54;;;;;;;5.22;3.58;;;16.60;99.90;;;;;;5102874;27;20222;-81
2022/05/24 09:43:29;;;;;;;5.70;2.85;;;16.60;99.90;;;;;;5105100;27;20214;-77
2022/05/24 09:46:02;;;;;;;6.95;4.38;;;16.50;99.90;;;;;;5104907;27;20213;-82
2022/05/24 09:48:35;;;;;;;4.07;3.22;;;16.60;99.90;;;;;;5105012;27;20657;-82
2022/05/24 09:51:11;;;;;;;8.73;3.70;;;16.50;99.90;;;;;;5103657;27;20206;-81
2022/05/24 09:53:52;;;;;;;4.07;2.58;;;16.50;99.90;;;;;;5108814;28;20270;-82
2022/05/24 09:56:27;;;;;;;4.57;2.42;;;16.50;99.90;;;;;;5104205;27;20202;-82
2022/05/24 09:59:00;;;;;;;4.63;2.30;;;16.60;99.90;;;;;;5102574;27;20194;-81
2022/05/24 10:01:40;;;;;;;5.25;2.22;;;16.60;99.90;;;;;;5099316;28;20201;-82
2022/05/24 10:04:22;;;;;;;3.78;2.40;;;16.50;99.90;;;;;;5107592;28;20708;-80
2022/05/24 10:07:00;;;;;;;3.85;2.53;;;16.50;99.90;;;;;;5103158;28;20612;-81
2022/05/24 10:09:47;;;;;;;5.65;2.80;;;16.50;99.90;;;;;;5100184;28;20198;-81
2022/05/24 10:12:44;;;;;;;4.22;2.67;;;16.50;99.90;;;;;;5107805;27;20672;-80
2022/05/24 10:15:28;;;;;;;5.60;2.80;;;16.50;99.90;;;;;;5104865;27;20218;-80
2022/05/24 10:18:15;;;;;;;4.28;2.67;;;16.50;99.90;;;;;;5102342;27;20194;-81
2022/05/24 10:20:54;;;;;;;4.13;2.45;;;16.50;99.90;;;;;;5101300;27;20202;-84
2022/05/24 10:23:39;;;;;;;5.20;3.20;;;16.50;99.90;;;;;;5105154;28;20195;-83
2022/05/24 10:26:23;;;;;;;6.55;2.90;;;16.60;99.90;;;;;;5103645;28;20286;-84
2022/05/24 10:29:03;;;;;;;8.13;5.63;;;16.60;99.90;;;;;;5103137;28;20186;-84
2022/05/24 10:31:45;;;;;;;6.38;4.03;;;16.50;99.90;;;;;;5104009;27;20198;-83
2022/05/24 10:40:16;;;;;;;5.07;3.35;;;16.50;99.90;;;;;;5100599;27;20222;-79
2022/05/24 10:43:07;;;;;;;3.63;2.70;;;16.50;99.90;;;;;;5103540;27;20240;-80
2022/05/24 10:45:52;;;;;;;4.40;2.80;;;16.50;99.90;;;;;;5103364;27;20206;-80
2022/05/24 10:48:31;;;;;;;5.85;2.80;;;16.50;99.90;;;;;;5101861;27;20190;-80
2022/05/24 10:51:12;;;;;;;4.45;3.03;;;16.50;99.90;;;;;;5103462;28;20289;-80
2022/05/24 10:53:49;;;;;;;6.22;2.92;;;16.40;99.90;;;;;;5100878;27;20203;-79
2022/05/24 10:56:30;;;;;;;4.03;2.45;;;16.40;99.90;;;;;;5097080;27;20255;-86
2022/05/24 10:59:09;;;;;;;3.35;3.00;;;16.40;99.90;;;;;;5101611;28;20207;-82
2022/05/24 11:01:45;;;;;;;4.68;2.72;;;16.40;99.90;;;;;;5099907;27;20209;-82
2022/05/24 11:04:23;;;;;;;5.45;2.97;;;16.30;99.90;;;;;;5101167;27;20222;-82
2022/05/24 11:07:02;;;;;;;4.32;2.80;;;16.30;99.90;;;;;;5100508;27;20214;-81
2022/05/24 11:09:36;;;;;;;5.07;2.97;;;16.30;99.90;;;;;;5096854;28;20279;-79
2022/05/24 11:12:14;;;;;;;5.38;3.10;;;16.30;99.90;;;;;;5097994;27;20275;-81
2022/05/24 11:14:50;;;;;;;5.28;3.20;;;16.30;99.90;;;;;;5095715;27;20222;-83
2022/05/24 11:17:23;;;;;;;4.30;2.90;;;16.30;99.90;;;;;;5100033;27;20588;-82
2022/05/24 11:19:55;;;;;;;5.10;3.15;;;16.30;99.90;;;;;;5100522;27;20271;-82
2022/05/24 11:22:33;;;;;;;4.85;3.70;;;16.30;99.90;;;;;;5105349;27;20272;-83
2022/05/24 11:25:11;;;;;;;4.82;3.50;;;16.30;99.90;;;;;;5101542;27;20206;-83
2022/05/24 11:27:44;;;;;;;7.70;4.20;;;16.20;99.90;;;;;;5103775;28;20218;-83
2022/05/24 11:30:19;;;;;;;6.47;4.00;;;16.20;99.90;;;;;;5102583;27;20193;-82
2022/05/24 11:32:54;;;;;;;6.70;4.13;;;16.20;99.90;;;;;;5100315;27;20197;-82
2022/05/24 11:35:33;;;;;;;6.25;4.00;;;16.10;99.90;;;;;;5101094;27;20202;-81
2022/05/24 11:38:16;;;;;;;5.25;3.55;;;16.10;99.90;;;;;;5102332;27;20195;-81
2022/05/24 11:41:07;;;;;;;5.78;3.90;;;16.10;99.90;;;;;;5097803;27;20197;-82
2022/05/24 11:44:07;;;;;;;4.68;3.78;;;16.10;99.90;;;;;;5102415;27;20221;-83
2022/05/24 11:46:49;;;;;;;4.95;3.72;;;16.00;99.90;;;;;;5104863;27;20206;-83
2022/05/24 11:50:08;;;;;;;6.15;4.25;;;16.00;99.90;;;;;;5101187;28;20604;-81
2022/05/24 11:53:01;;;;;;;6.28;4.07;;;15.90;99.90;;;;;;5094049;27;20201;-82
2022/05/24 11:55:52;;;;;;;8.05;3.78;;;15.90;99.90;;;;;;5101901;28;20274;-82
2022/05/24 11:58:50;;;;;;;6.18;3.72;;;15.90;99.90;;;;;;5101641;28;20215;-82
2022/05/24 12:01:43;;;;;;;6.70;3.80;;;15.90;99.90;;;;;;5093089;28;20210;-82
2022/05/24 12:10:50;;;;;;;6.03;3.80;;;15.90;99.90;;;;;;5100706;28;20668;-82
2022/05/24 12:13:34;;;;;;;7.45;4.03;;;15.80;99.90;;;;;;5103761;28;20198;-85
2022/05/24 12:16:09;;;;;;;5.50;3.70;;;15.80;99.90;;;;;;5100230;28;21021;-83
2022/05/24 12:18:44;;;;;;;5.68;3.85;;;15.80;99.90;;;;;;5102491;28;20198;-82
2022/05/24 12:22:00;;;;;;;7.28;3.42;;;15.70;99.90;;;;;;5101355;28;20243;-83
2022/05/24 12:25:01;;;;;;;4.25;3.10;;;15.70;99.90;;;;;;5099895;28;20659;-83
2022/05/24 12:27:51;;;;;;;5.63;3.72;;;15.70;99.90;;;;;;5101604;28;20271;-84
2022/05/24 12:30:49;;;;;;;6.75;3.95;;;15.70;99.90;;;;;;5102360;28;20198;-83
2022/05/24 12:33:40;;;;;;;3.67;3.28;;;15.70;99.90;;;;;;5099874;28;20222;-82
2022/05/24 12:36:29;;;;;;;5.22;3.65;;;15.70;99.90;;;;;;5101969;28;20618;-83
2022/05/24 12:39:12;;;;;;;6.03;3.78;;;15.70;99.90;;;;;;5103304;28;20182;-89
2022/05/24 12:41:46;;;;;;;5.28;3.70;;;15.70;99.90;;;;;;5102703;28;20203;-84
2022/05/24 12:44:21;;;;;;;5.68;3.88;;;15.70;99.90;;;;;;5103376;28;20197;-85
2022/05/24 12:46:54;;;;;;;4.70;3.70;;;15.70;99.90;;;;;;5101353;28;20254;-84
2022/05/24 12:49:27;;;;;;;4.55;3.58;;;15.70;99.90;;;;;;5103165;28;20287;-84
2022/05/24 12:52:04;;;;;;;4.60;3.70;;;15.70;99.90;;;;;;5102802;28;20195;-85
2022/05/24 12:54:35;;;;;;;6.18;4.05;;;15.60;99.90;;;;;;5101223;28;20209;-83
2022/05/24 12:57:08;;;;;;;7.47;5.93;;;15.60;99.90;;;;;;5102125;28;20183;-83
2022/05/24 12:59:45;;;;;;;5.38;4.30;;;15.60;99.90;;;;;;5102614;28;20251;-83
2022/05/24 13:02:32;;;;;;;8.73;4.60;;;15.50;99.90;;;;;;5103196;28;20195;-85
2022/05/24 13:05:11;;;;;;;5.55;4.07;;;15.50;99.90;;;;;;5104906;28;20191;-85
2022/05/24 13:07:45;;;;;;;6.80;3.90;;;15.40;99.90;;;;;;5105974;28;20218;-85
2022/05/24 13:10:27;;;;;;;6.35;4.05;;;15.40;99.90;;;;;;5107099;27;20694;-84
2022/05/24 13:13:01;;;;;;;5.28;4.05;;;15.40;99.90;;;;;;5106109;27;20187;-85
2022/05/24 13:15:39;;;;;;;5.78;4.10;;;15.40;99.90;;;;;;5106246;27;20719;-84
2022/05/24 13:18:15;;;;;;;4.90;3.92;;;15.40;99.90;;;;;;5105954;28;20197;-85
2022/05/24 13:20:47;;;;;;;6.00;4.13;;;15.30;99.90;;;;;;5106315;28;20186;-86
2022/05/24 13:23:28;;;;;;;6.93;4.18;;;15.30;99.90;;;;;;5106453;28;20203;-86
2022/05/24 13:25:59;;;;;;;7.13;4.28;;;15.30;99.90;;;;;;5106062;28;20203;-85
2022/05/24 13:28:41;;;;;;;5.03;3.80;;;15.30;99.90;;;;;;5106700;27;20218;-85
2022/05/24 13:34:14;;;;;;;5.55;4.28;;;15.30;99.90;;;;;;5106254;28;20676;-84
2022/05/24 13:36:47;;;;;;;6.30;4.15;;;15.40;99.90;;;;;;5103403;28;20734;-84
2022/05/24 13:39:21;;;;;;;7.95;3.97;;;15.40;99.90;;;;;;5105384;27;20625;-82
2022/05/24 13:42:01;;;;;;;6.03;3.97;;;15.40;99.90;;;;;;5108256;28;20730;-84
2022/05/24 13:44:34;;;;;;;5.90;3.83;;;15.30;99.90;;;;;;5109525;28;20645;-86
2022/05/24 13:47:09;;;;;;;5.28;3.92;;;15.40;99.90;;;;;;5107350;27;20692;-83
2022/05/24 13:49:44;;;;;;;5.90;3.80;;;15.40;99.90;;;;;;5105171;27;20679;-87
2022/05/24 13:52:28;;;;;;;6.20;3.88;;;15.40;99.90;;;;;;5108839;27;20190;-83
2022/05/24 13:55:19;;;;;;;4.57;3.60;;;15.40;99.90;;;;;;5107878;27;20206;-84
2022/05/24 13:57:58;;;;;;;5.93;3.78;;;15.50;99.90;;;;;;5104969;28;20214;-87
2022/05/24 14:00:40;;;;;;;5.07;4.00;;;15.50;99.90;;;;;;5108080;27;20220;-84
2022/05/24 14:03:27;;;;;;;6.38;3.72;;;15.50;99.90;;;;;;5100933;28;20275;-85
2022/05/24 14:06:12;;;;;;;4.97;3.70;;;15.50;99.90;;;;;;5105212;28;20265;-84
2022/05/24 14:08:44;;;;;;;7.30;3.75;;;15.50;99.90;;;;;;5105974;28;20307;-85
2022/05/24 14:11:18;;;;;;;4.65;3.88;;;15.50;99.90;;;;;;5104921;28;20248;-86
2022/05/24 14:13:51;;;;;;;4.78;3.72;;;15.40;99.90;;;;;;5105197;27;20194;-82
2022/05/24 14:16:23;;;;;;;4.72;3.70;;;15.40;99.90;;;;;;5103744;28;20195;-84